TimeHST,TemperatureF,Dew PointF,Humidity,Sea Level PressureIn,VisibilityMPH,Wind Direction,Wind SpeedMPH,Gust SpeedMPH,PrecipitationIn,Events,Conditions,WindDirDegrees,DateUTC
12:53 AM,73.9,61.0,64,30.07,10.0,Variable,5.8,-,N/A,,Clear,0,2012-12-11 10:53:00
1:53 AM,73.0,61.0,66,30.06,10.0,ENE,4.6,-,N/A,,Clear,70,2012-12-11 11:53:00
2:53 AM,73.0,61.0,66,30.05,10.0,ENE,4.6,-,N/A,,Clear,70,2012-12-11 12:53:00
3:53 AM,73.0,61.0,66,30.04,10.0,Variable,6.9,-,N/A,,Clear,0,2012-12-11 13:53:00
4:53 AM,73.0,61.0,66,30.04,10.0,ENE,8.1,-,N/A,,Clear,70,2012-12-11 14:53:00
5:53 AM,73.0,61.0,66,30.04,10.0,ENE,8.1,-,N/A,,Clear,70,2012-12-11 15:53:00
6:53 AM,73.9,61.0,64,30.06,10.0,East,9.2,16.1,N/A,,Clear,80,2012-12-11 16:53:00
7:53 AM,75.0,61.0,62,30.09,10.0,Variable,6.9,17.3,N/A,,Clear,0,2012-12-11 17:53:00
8:53 AM,77.0,61.0,58,30.10,10.0,ENE,12.7,20.7,N/A,,Clear,70,2012-12-11 18:53:00
9:53 AM,80.1,62.1,54,30.12,10.0,ENE,11.5,19.6,N/A,,Clear,70,2012-12-11 19:53:00
10:53 AM,80.1,61.0,52,30.11,10.0,ENE,9.2,21.9,N/A,,Clear,70,2012-12-11 20:53:00
11:53 AM,79.0,62.1,56,30.10,10.0,ENE,9.2,20.7,N/A,,Mostly Cloudy,70,2012-12-11 21:53:00
12:53 PM,82.0,61.0,49,30.06,10.0,ENE,13.8,25.3,N/A,,Clear,70,2012-12-11 22:53:00
1:53 PM,81.0,63.0,54,30.05,10.0,ENE,10.4,28.8,N/A,,Mostly Cloudy,70,2012-12-11 23:53:00
2:53 PM,79.0,61.0,54,30.05,10.0,ENE,16.1,29.9,N/A,,Clear,70,2012-12-12 00:53:00
3:53 PM,79.0,62.1,56,30.05,10.0,Variable,6.9,21.9,N/A,,Clear,0,2012-12-12 01:53:00
4:53 PM,78.1,60.1,54,30.05,10.0,ENE,11.5,24.2,N/A,,Clear,70,2012-12-12 02:53:00
5:53 PM,75.0,61.0,62,30.07,10.0,ENE,8.1,16.1,N/A,,Clear,60,2012-12-12 03:53:00
6:53 PM,75.0,61.0,62,30.09,10.0,East,6.9,18.4,N/A,,Clear,80,2012-12-12 04:53:00
7:53 PM,75.0,61.0,62,30.12,10.0,East,8.1,-,N/A,,Clear,80,2012-12-12 05:53:00
8:53 PM,75.0,61.0,62,30.13,10.0,Variable,5.8,-,N/A,,Mostly Cloudy,0,2012-12-12 06:53:00
9:53 PM,75.0,61.0,62,30.13,10.0,Variable,5.8,-,N/A,,Clear,0,2012-12-12 07:53:00
10:53 PM,75.0,61.0,62,30.13,10.0,ENE,6.9,-,N/A,,Clear,70,2012-12-12 08:53:00
11:53 PM,73.9,62.1,66,30.13,10.0,ENE,6.9,-,N/A,,Partly Cloudy,70,2012-12-12 09:53:00